Time;durP1;ratioP1;P1;durP2;ratioP2;P2;SDS_P1;SDS_P2;PMS_P1;PMS_P2;Temp;Humidity;BMP_temperature;BMP_pressure;BME280_temperature;BME280_humidity;BME280_pressure;Samples;Min_cycle;Max_cycle;Signal;HPM_P1;HPM_P2
2022/12/19 00:01:56;;;;;;;47.33;30.83;;;-0.60;99.90;;;;;;6212172;23;20410;-76
2022/12/19 00:04:22;;;;;;;37.87;28.27;;;-0.60;99.90;;;;;;6211884;23;20444;-77
2022/12/19 00:06:49;;;;;;;41.67;30.67;;;-0.50;99.90;;;;;;6211895;23;20408;-76
2022/12/19 00:09:16;;;;;;;47.47;34.83;;;-0.50;99.90;;;;;;6212249;23;20411;-76
2022/12/19 00:11:42;;;;;;;45.30;31.73;;;-0.50;99.90;;;;;;6211327;23;20422;-75
2022/12/19 00:14:11;;;;;;;44.90;33.23;;;-0.30;99.90;;;;;;6211604;23;20411;-76
2022/12/19 00:16:38;;;;;;;45.73;31.50;;;-0.20;99.90;;;;;;6211093;23;20412;-76
2022/12/19 00:19:05;;;;;;;45.30;31.10;;;-0.30;99.90;;;;;;6211586;23;20400;-76
2022/12/19 00:21:33;;;;;;;37.47;28.90;;;-0.20;99.90;;;;;;6211611;23;20445;-76
2022/12/19 00:24:01;;;;;;;50.67;30.90;;;-0.10;99.90;;;;;;6211902;23;20444;-76
2022/12/19 00:26:29;;;;;;;42.33;29.77;;;-0.20;99.90;;;;;;6211848;23;20408;-76
2022/12/19 00:28:58;;;;;;;38.37;30.13;;;-0.30;99.90;;;;;;6211448;23;20427;-76
2022/12/19 00:31:28;;;;;;;51.43;33.00;;;-0.30;99.90;;;;;;6211104;23;20412;-76
2022/12/19 00:33:55;;;;;;;44.37;29.60;;;-0.30;99.90;;;;;;6211139;23;20405;-76
2022/12/19 00:36:23;;;;;;;41.97;31.67;;;-0.30;99.90;;;;;;6211696;23;20798;-76
2022/12/19 00:38:52;;;;;;;40.00;28.27;;;-0.40;99.90;;;;;;6211157;23;20416;-76
2022/12/19 00:41:20;;;;;;;42.57;31.13;;;-0.40;99.90;;;;;;6210879;23;20410;-76
2022/12/19 00:43:47;;;;;;;44.20;31.13;;;-0.50;99.90;;;;;;6211509;23;20435;-76
2022/12/19 00:46:15;;;;;;;42.20;31.07;;;-0.50;99.90;;;;;;6211411;23;21026;-76
2022/12/19 00:48:43;;;;;;;41.57;29.30;;;-0.40;99.90;;;;;;6210987;23;20408;-76
2022/12/19 00:51:13;;;;;;;48.03;32.50;;;-0.50;99.90;;;;;;6211476;23;20418;-76
2022/12/19 00:53:39;;;;;;;41.10;28.13;;;-0.40;99.90;;;;;;6211415;23;20405;-76
2022/12/19 00:56:10;;;;;;;49.40;33.03;;;-0.50;99.90;;;;;;6211137;23;20408;-75
2022/12/19 00:58:37;;;;;;;47.53;32.83;;;-0.40;99.90;;;;;;6210779;23;20724;-76
2022/12/19 01:01:06;;;;;;;41.20;30.20;;;-0.40;99.90;;;;;;6210963;23;20442;-76
2022/12/19 01:03:33;;;;;;;29.50;25.00;;;-0.40;99.90;;;;;;6210915;23;20440;-75
2022/12/19 01:06:01;;;;;;;35.77;28.20;;;-0.50;99.90;;;;;;6211304;23;20508;-75
2022/12/19 01:08:28;;;;;;;34.67;25.80;;;-0.60;99.90;;;;;;6211087;23;20474;-76
2022/12/19 01:10:55;;;;;;;33.77;25.33;;;-0.60;99.90;;;;;;6210732;23;20405;-76
2022/12/19 01:13:25;;;;;;;32.13;27.17;;;-0.60;99.90;;;;;;6210440;23;20419;-76
2022/12/19 01:15:52;;;;;;;45.97;31.50;;;-0.70;99.90;;;;;;6210496;23;20685;-76
2022/12/19 01:18:19;;;;;;;36.07;25.87;;;-0.60;99.90;;;;;;6211156;23;20413;-76
2022/12/19 01:20:46;;;;;;;49.73;33.10;;;-0.70;99.90;;;;;;6210559;23;20953;-76
2022/12/19 01:23:16;;;;;;;40.93;28.90;;;-0.60;99.90;;;;;;6210950;23;20446;-77
2022/12/19 01:25:48;;;;;;;46.67;28.70;;;-0.50;99.90;;;;;;6210671;23;20411;-77
2022/12/19 01:28:15;;;;;;;39.67;27.47;;;-0.50;99.90;;;;;;6211084;23;20392;-76
2022/12/19 01:30:42;;;;;;;41.53;30.10;;;-0.50;99.90;;;;;;6210731;23;20416;-77
2022/12/19 01:33:11;;;;;;;32.10;25.80;;;-0.40;99.90;;;;;;6210350;23;20408;-76
2022/12/19 01:35:38;;;;;;;34.37;28.40;;;-0.30;99.90;;;;;;6210584;23;20462;-77
2022/12/19 01:38:05;;;;;;;42.17;32.13;;;-0.30;99.90;;;;;;6210187;23;20426;-77
2022/12/19 01:40:34;;;;;;;33.80;25.83;;;-0.30;99.90;;;;;;6210922;23;20414;-77
2022/12/19 01:43:01;;;;;;;34.50;26.90;;;-0.30;99.90;;;;;;6211046;23;20442;-76
2022/12/19 01:45:31;;;;;;;46.53;32.10;;;-0.30;99.90;;;;;;6210513;23;20398;-76
2022/12/19 01:48:06;;;;;;;34.57;28.13;;;-0.30;99.90;;;;;;6211016;23;20965;-77
2022/12/19 01:50:37;;;;;;;41.23;32.90;;;-0.20;99.90;;;;;;6210499;23;20395;-77
2022/12/19 01:53:07;;;;;;;38.67;28.50;;;-0.10;99.90;;;;;;6210377;23;20515;-76
2022/12/19 01:55:37;;;;;;;49.93;33.73;;;0.00;99.90;;;;;;6210698;23;20438;-76
2022/12/19 01:58:04;;;;;;;41.47;32.37;;;0.10;99.90;;;;;;6210756;23;20419;-77
2022/12/19 02:00:32;;;;;;;51.80;31.40;;;0.10;99.90;;;;;;6210819;23;20421;-76
2022/12/19 02:03:05;;;;;;;39.47;30.97;;;0.10;99.90;;;;;;6210507;23;20438;-76
2022/12/19 02:05:32;;;;;;;41.43;29.43;;;0.10;99.90;;;;;;6210715;23;20424;-76
2022/12/19 02:08:00;;;;;;;33.23;29.50;;;0.10;99.90;;;;;;6211203;23;20413;-76
2022/12/19 02:10:27;;;;;;;46.37;33.37;;;0.10;99.90;;;;;;6210529;23;20412;-77
2022/12/19 02:12:56;;;;;;;41.07;33.83;;;0.10;99.90;;;;;;6210174;23;20408;-77
2022/12/19 02:15:23;;;;;;;46.97;28.93;;;0.20;99.90;;;;;;6209907;23;20409;-77
2022/12/19 02:18:03;;;;;;;36.27;29.00;;;0.20;99.90;;;;;;6210049;23;20413;-75
2022/12/19 02:21:06;;;;;;;33.67;29.23;;;0.20;99.90;;;;;;6209895;23;20961;-76
2022/12/19 02:24:08;;;;;;;33.07;27.70;;;0.30;99.90;;;;;;6205036;23;20775;-76
2022/12/19 02:26:57;;;;;;;48.03;36.20;;;0.30;99.90;;;;;;6209961;23;20394;-75
2022/12/19 02:29:49;;;;;;;49.77;32.83;;;0.40;99.90;;;;;;6209835;23;20772;-76
2022/12/19 02:32:21;;;;;;;37.43;29.67;;;0.30;99.90;;;;;;6207489;23;20418;-75
2022/12/19 02:34:55;;;;;;;37.97;30.63;;;0.30;99.90;;;;;;6209958;23;20395;-76
2022/12/19 02:37:28;;;;;;;43.83;33.37;;;0.30;99.90;;;;;;6210158;23;20404;-75
2022/12/19 02:40:02;;;;;;;39.23;28.00;;;0.30;99.90;;;;;;6210069;23;20389;-75
2022/12/19 02:42:31;;;;;;;33.17;24.73;;;0.30;99.90;;;;;;6210534;23;20399;-75
2022/12/19 02:45:00;;;;;;;40.37;30.83;;;0.30;99.90;;;;;;6209651;23;20451;-75
2022/12/19 02:47:29;;;;;;;45.57;34.47;;;0.30;99.90;;;;;;6210170;23;20407;-76
2022/12/19 02:49:56;;;;;;;43.07;31.50;;;0.30;99.90;;;;;;6209882;23;20418;-75
2022/12/19 02:52:44;;;;;;;40.33;31.13;;;0.40;99.90;;;;;;6210194;23;20504;-76
2022/12/19 02:55:14;;;;;;;43.07;32.57;;;0.50;99.90;;;;;;6211005;23;20405;-76
2022/12/19 02:58:05;;;;;;;29.67;26.47;;;0.50;99.90;;;;;;6211097;23;20404;-75
2022/12/19 03:00:37;;;;;;;39.80;31.53;;;0.40;99.90;;;;;;6211431;23;20400;-75
2022/12/19 03:03:13;;;;;;;48.03;34.00;;;0.50;99.90;;;;;;6211145;23;20393;-77
2022/12/19 03:05:49;;;;;;;44.33;32.33;;;0.50;99.90;;;;;;6211395;23;20439;-76
2022/12/19 03:08:24;;;;;;;40.17;30.63;;;0.60;99.90;;;;;;6221092;23;20392;-76
2022/12/19 03:10:57;;;;;;;41.77;29.43;;;0.60;99.90;;;;;;6232621;23;20400;-76
2022/12/19 03:13:29;;;;;;;37.07;29.87;;;0.60;99.90;;;;;;6225036;23;20915;-76
2022/12/19 03:15:57;;;;;;;30.93;24.37;;;0.60;99.90;;;;;;6210566;23;20393;-73
2022/12/19 03:18:26;;;;;;;40.53;30.90;;;0.60;99.90;;;;;;6210919;23;20596;-73
2022/12/19 03:20:59;;;;;;;24.93;21.87;;;0.60;99.90;;;;;;6210501;23;20441;-73
2022/12/19 03:23:27;;;;;;;45.87;33.57;;;0.60;99.90;;;;;;6210539;23;20429;-73
2022/12/19 03:25:58;;;;;;;51.00;34.53;;;0.70;99.90;;;;;;6210953;23;20418;-73
2022/12/19 03:28:30;;;;;;;39.87;31.00;;;0.70;99.90;;;;;;6211010;23;20393;-73
2022/12/19 03:30:59;;;;;;;41.00;30.60;;;0.70;99.90;;;;;;6210626;23;20873;-73
2022/12/19 03:33:31;;;;;;;43.03;32.87;;;0.70;99.90;;;;;;6210561;23;20899;-73
2022/12/19 03:36:03;;;;;;;33.97;29.00;;;0.70;99.90;;;;;;6211538;23;20715;-73
2022/12/19 03:38:31;;;;;;;26.67;23.90;;;0.70;99.90;;;;;;6211182;23;20398;-73
2022/12/19 03:41:00;;;;;;;37.07;31.10;;;0.70;99.90;;;;;;6210814;23;20407;-74
2022/12/19 03:43:28;;;;;;;37.33;27.53;;;0.80;99.90;;;;;;6211252;23;20409;-72
2022/12/19 03:46:00;;;;;;;29.77;25.63;;;0.80;99.90;;;;;;6210883;23;20416;-73
2022/12/19 03:48:32;;;;;;;39.10;27.60;;;0.80;99.90;;;;;;6211067;23;20404;-73
2022/12/19 03:51:07;;;;;;;40.17;30.47;;;0.80;99.90;;;;;;6211350;23;20396;-73
2022/12/19 03:53:59;;;;;;;37.10;27.33;;;0.80;99.90;;;;;;6210689;23;20880;-73
2022/12/19 03:56:31;;;;;;;35.70;28.80;;;0.80;99.90;;;;;;6210599;23;20428;-73
2022/12/19 03:59:03;;;;;;;36.83;29.27;;;0.90;99.90;;;;;;6210767;23;20404;-72
2022/12/19 04:01:33;;;;;;;37.17;26.70;;;0.90;99.90;;;;;;6210963;23;20399;-72
2022/12/19 04:04:03;;;;;;;43.37;32.17;;;1.00;99.90;;;;;;6210986;23;20454;-72
2022/12/19 04:06:33;;;;;;;31.37;26.20;;;1.00;99.90;;;;;;6211266;23;20418;-72
2022/12/19 04:09:01;;;;;;;38.10;31.73;;;1.10;99.90;;;;;;6212282;23;20408;-72
2022/12/19 04:11:30;;;;;;;37.03;27.80;;;1.10;99.90;;;;;;6213078;23;20415;-72
2022/12/19 04:14:01;;;;;;;42.40;27.23;;;1.20;99.90;;;;;;6213143;23;20721;-72
2022/12/19 04:16:34;;;;;;;34.33;25.23;;;1.20;99.90;;;;;;6212766;23;20395;-73
2022/12/19 04:19:09;;;;;;;35.20;26.97;;;1.00;99.90;;;;;;6212908;23;20421;-71
2022/12/19 04:21:41;;;;;;;40.10;31.30;;;1.20;99.90;;;;;;6212138;23;20435;-72
2022/12/19 04:24:18;;;;;;;28.13;25.03;;;1.20;99.90;;;;;;6212453;23;20918;-73
2022/12/19 04:26:49;;;;;;;38.37;30.60;;;1.20;99.90;;;;;;6212598;23;20389;-73
2022/12/19 04:29:18;;;;;;;30.87;27.23;;;1.10;99.90;;;;;;6212803;23;20401;-74
2022/12/19 04:31:44;;;;;;;29.63;26.60;;;1.10;99.90;;;;;;6212794;23;20411;-74
2022/12/19 04:34:13;;;;;;;38.07;30.97;;;1.20;99.90;;;;;;6212081;23;20409;-74
2022/12/19 04:36:40;;;;;;;38.40;34.50;;;1.20;99.90;;;;;;6212138;23;20419;-74
2022/12/19 04:39:07;;;;;;;47.30;37.03;;;1.20;99.90;;;;;;6212335;23;20578;-74
2022/12/19 04:41:34;;;;;;;37.20;33.40;;;1.20;99.90;;;;;;6212432;23;20412;-76
2022/12/19 04:44:00;;;;;;;43.43;34.00;;;1.20;99.90;;;;;;6212652;23;20453;-76
2022/12/19 04:46:27;;;;;;;50.70;35.70;;;1.20;99.90;;;;;;6212045;23;20469;-76
2022/12/19 04:48:54;;;;;;;42.77;34.60;;;1.20;99.90;;;;;;6212200;23;20417;-75
2022/12/19 04:51:22;;;;;;;42.07;34.37;;;1.20;99.90;;;;;;6212261;23;20418;-76
2022/12/19 04:53:49;;;;;;;44.13;37.80;;;1.20;99.90;;;;;;6212285;23;20405;-76
2022/12/19 04:56:15;;;;;;;37.77;33.80;;;1.30;99.90;;;;;;6212477;23;20424;-76
2022/12/19 04:58:42;;;;;;;37.27;33.57;;;1.30;99.90;;;;;;6211696;23;20440;-75
2022/12/19 05:01:09;;;;;;;52.17;43.07;;;1.30;99.90;;;;;;6211935;23;20401;-76
2022/12/19 05:03:36;;;;;;;44.43;39.80;;;1.40;99.90;;;;;;6211683;23;20416;-75
2022/12/19 05:06:05;;;;;;;50.40;39.63;;;1.40;99.90;;;;;;6211832;23;20430;-76
2022/12/19 05:08:34;;;;;;;47.67;40.13;;;1.50;99.90;;;;;;6212297;23;20420;-75
2022/12/19 05:11:01;;;;;;;44.10;38.90;;;1.50;99.90;;;;;;6212049;23;20890;-75
2022/12/19 05:13:29;;;;;;;44.80;39.80;;;1.50;99.90;;;;;;6212242;23;20413;-75
2022/12/19 05:15:56;;;;;;;37.93;34.40;;;1.40;99.90;;;;;;6211824;23;20732;-75
2022/12/19 05:18:23;;;;;;;46.90;39.93;;;1.40;99.90;;;;;;6211896;23;20415;-75
2022/12/19 05:20:50;;;;;;;46.63;37.13;;;1.40;99.90;;;;;;6210669;23;20440;-74
2022/12/19 05:23:17;;;;;;;46.23;41.53;;;1.30;99.90;;;;;;6212531;23;20727;-74
2022/12/19 05:25:45;;;;;;;47.30;42.27;;;1.30;99.90;;;;;;6211520;23;20452;-74
2022/12/19 05:28:11;;;;;;;45.70;40.50;;;1.30;99.90;;;;;;6212305;23;20432;-75
2022/12/19 05:30:38;;;;;;;46.20;35.90;;;1.30;99.90;;;;;;6211743;23;20418;-73
2022/12/19 05:33:06;;;;;;;49.73;38.17;;;1.30;99.90;;;;;;6211617;23;20416;-73
2022/12/19 05:35:33;;;;;;;44.43;39.00;;;1.30;99.90;;;;;;6211954;23;20413;-74
2022/12/19 05:38:00;;;;;;;45.50;38.73;;;1.30;99.90;;;;;;6212096;23;20468;-72
2022/12/19 05:40:27;;;;;;;45.30;38.10;;;1.30;99.90;;;;;;6211717;23;20418;-72
2022/12/19 05:42:55;;;;;;;50.40;40.63;;;1.20;99.90;;;;;;6211629;23;20497;-74
2022/12/19 05:45:21;;;;;;;35.50;31.80;;;1.30;99.90;;;;;;6211414;23;20957;-72
2022/12/19 05:47:48;;;;;;;48.20;38.90;;;1.30;99.90;;;;;;6211627;23;20436;-72
2022/12/19 05:50:16;;;;;;;49.43;37.23;;;1.20;99.90;;;;;;6211729;23;20404;-73
2022/12/19 05:52:44;;;;;;;40.57;34.90;;;1.20;99.90;;;;;;6211500;23;21004;-75
2022/12/19 05:55:10;;;;;;;44.90;37.63;;;1.20;99.90;;;;;;6211562;23;20416;-73
2022/12/19 05:57:37;;;;;;;46.33;38.20;;;1.30;99.90;;;;;;6211591;23;20424;-73
2022/12/19 06:00:09;;;;;;;43.60;37.40;;;1.30;99.90;;;;;;6211100;23;20457;-73
2022/12/19 06:02:36;;;;;;;45.10;38.40;;;1.40;99.90;;;;;;6211234;23;20866;-73
2022/12/19 06:05:03;;;;;;;44.13;35.70;;;1.40;99.90;;;;;;6211526;23;20447;-73
2022/12/19 06:07:30;;;;;;;43.70;37.00;;;1.40;99.90;;;;;;6211730;23;20409;-73
2022/12/19 06:09:57;;;;;;;52.87;39.10;;;1.40;99.90;;;;;;6211578;23;20415;-73
2022/12/19 06:12:24;;;;;;;49.80;37.00;;;1.40;99.90;;;;;;6211134;23;20408;-73
2022/12/19 06:14:51;;;;;;;39.07;34.97;;;1.40;99.90;;;;;;6210917;23;20413;-73
2022/12/19 06:17:19;;;;;;;51.53;38.13;;;1.40;99.90;;;;;;6211576;23;20415;-73
2022/12/19 06:19:45;;;;;;;54.53;40.03;;;1.50;99.90;;;;;;6211553;23;20745;-73
2022/12/19 06:22:12;;;;;;;52.80;39.60;;;1.50;99.90;;;;;;6210979;23;20440;-73
2022/12/19 06:24:39;;;;;;;49.97;34.67;;;1.50;99.90;;;;;;6211304;23;20440;-73
2022/12/19 06:27:06;;;;;;;46.87;36.40;;;1.50;99.90;;;;;;6211231;23;20416;-72
2022/12/19 06:29:32;;;;;;;46.13;37.70;;;1.50;99.90;;;;;;6210995;23;20409;-73
2022/12/19 06:31:59;;;;;;;47.10;36.40;;;1.60;99.90;;;;;;6210709;23;20420;-73
2022/12/19 06:34:28;;;;;;;50.20;39.87;;;1.60;99.90;;;;;;6211222;23;20397;-74
2022/12/19 06:36:54;;;;;;;46.77;37.40;;;1.60;99.90;;;;;;6211318;23;20442;-72
2022/12/19 06:39:22;;;;;;;43.60;37.97;;;1.70;99.90;;;;;;6210960;23;20420;-73
2022/12/19 06:44:33;;;;;;;43.90;38.93;;;1.70;99.90;;;;;;6210849;23;20516;-74
2022/12/19 06:47:00;;;;;;;59.00;41.83;;;1.70;99.90;;;;;;6210948;23;20413;-74
2022/12/19 06:49:28;;;;;;;47.63;35.10;;;1.70;99.90;;;;;;6211393;23;20506;-74
2022/12/19 06:51:55;;;;;;;42.63;36.90;;;1.70;99.90;;;;;;6211155;23;20419;-74
2022/12/19 06:54:21;;;;;;;47.60;42.00;;;1.80;99.90;;;;;;6211025;23;20409;-75
2022/12/19 06:56:48;;;;;;;55.13;42.77;;;1.90;99.90;;;;;;6211087;23;20412;-73
2022/12/19 06:59:16;;;;;;;46.83;41.77;;;1.90;99.90;;;;;;6211209;23;20412;-76
2022/12/19 07:01:54;;;;;;;53.90;45.60;;;2.00;99.90;;;;;;6210926;23;20585;-75
2022/12/19 07:04:26;;;;;;;53.50;46.93;;;1.90;99.90;;;;;;6210656;23;20393;-75
2022/12/19 07:06:54;;;;;;;50.33;43.10;;;1.90;99.90;;;;;;6210865;23;20768;-75
2022/12/19 07:09:21;;;;;;;55.70;45.33;;;2.00;99.90;;;;;;6210623;23;20415;-76
2022/12/19 07:11:48;;;;;;;53.20;45.80;;;2.00;99.90;;;;;;6210857;23;20409;-75
2022/12/19 07:14:15;;;;;;;54.07;48.23;;;2.00;99.90;;;;;;6211113;23;20408;-75
2022/12/19 07:16:42;;;;;;;44.57;40.30;;;2.10;99.90;;;;;;6210848;23;20544;-74
2022/12/19 07:19:10;;;;;;;58.37;48.07;;;2.10;99.90;;;;;;6210749;23;20440;-75
2022/12/19 07:21:37;;;;;;;52.00;44.07;;;2.10;99.90;;;;;;6210907;23;20443;-74
2022/12/19 07:24:06;;;;;;;50.90;45.57;;;2.10;99.90;;;;;;6211316;23;20438;-74
2022/12/19 07:26:34;;;;;;;55.13;47.60;;;2.20;99.90;;;;;;6211452;23;20443;-75
2022/12/19 07:29:01;;;;;;;50.03;45.00;;;2.20;99.90;;;;;;6211629;23;21075;-75
2022/12/19 07:31:27;;;;;;;54.17;48.47;;;2.20;99.90;;;;;;6211427;23;20416;-74
2022/12/19 07:33:54;;;;;;;51.17;45.57;;;2.30;99.90;;;;;;6210792;23;20818;-73
2022/12/19 07:36:21;;;;;;;55.23;45.77;;;2.30;99.90;;;;;;6211117;23;20737;-73
2022/12/19 07:38:48;;;;;;;51.83;46.40;;;2.30;99.90;;;;;;6211003;23;20409;-73
2022/12/19 07:41:16;;;;;;;52.83;47.17;;;2.40;99.90;;;;;;6211506;23;20416;-73
2022/12/19 07:43:44;;;;;;;55.03;49.53;;;2.40;99.90;;;;;;6212493;23;20416;-72
2022/12/19 07:46:11;;;;;;;50.90;45.40;;;2.40;99.90;;;;;;6212899;23;20520;-73
2022/12/19 07:48:38;;;;;;;49.70;44.67;;;2.50;99.90;;;;;;6213192;23;20983;-72
2022/12/19 07:51:05;;;;;;;52.03;46.60;;;2.50;99.90;;;;;;6212868;23;20407;-71
2022/12/19 07:53:32;;;;;;;51.97;46.53;;;2.50;99.90;;;;;;6213377;23;20421;-73
2022/12/19 07:55:59;;;;;;;47.53;42.73;;;2.50;99.90;;;;;;6212788;23;20401;-74
2022/12/19 07:58:27;;;;;;;52.10;46.90;;;2.50;99.90;;;;;;6212375;23;20732;-75
2022/12/19 08:00:55;;;;;;;56.20;46.03;;;2.50;99.90;;;;;;6212139;23;20420;-73
2022/12/19 08:03:22;;;;;;;47.50;42.80;;;2.60;99.90;;;;;;6212306;23;20711;-72
2022/12/19 08:05:48;;;;;;;54.10;45.13;;;2.60;99.90;;;;;;6212632;23;20471;-73
2022/12/19 08:08:49;;;;;;;45.83;41.37;;;2.60;99.90;;;;;;6213548;23;20406;-73
2022/12/19 08:11:21;;;;;;;54.57;46.73;;;2.70;99.90;;;;;;6197950;23;20428;-72
2022/12/19 08:13:50;;;;;;;49.97;44.80;;;2.70;99.90;;;;;;6212837;23;20801;-78
2022/12/19 08:16:16;;;;;;;51.53;45.60;;;2.70;99.90;;;;;;6212706;23;20494;-73
2022/12/19 08:18:43;;;;;;;52.87;43.53;;;2.80;99.90;;;;;;6212739;23;20718;-74
2022/12/19 08:21:10;;;;;;;50.73;45.10;;;2.80;99.90;;;;;;6212109;23;20445;-73
2022/12/19 08:23:37;;;;;;;50.37;45.20;;;2.90;99.90;;;;;;6210092;23;20596;-73
2022/12/19 08:26:06;;;;;;;55.43;44.70;;;2.90;99.90;;;;;;6212011;23;20442;-73
2022/12/19 08:28:35;;;;;;;52.10;46.43;;;2.90;99.90;;;;;;6213266;23;20412;-73
2022/12/19 08:31:08;;;;;;;59.10;49.10;;;2.90;99.90;;;;;;6213429;23;20411;-73
2022/12/19 08:33:35;;;;;;;51.73;45.73;;;2.90;99.90;;;;;;6213092;23;20750;-73
2022/12/19 08:36:04;;;;;;;59.97;49.73;;;2.90;99.90;;;;;;6212613;23;20413;-75
2022/12/19 08:38:30;;;;;;;58.73;47.40;;;2.90;99.90;;;;;;6212694;23;20734;-74
2022/12/19 08:40:57;;;;;;;53.10;45.97;;;3.00;99.90;;;;;;6212528;23;20412;-74
2022/12/19 08:43:24;;;;;;;60.53;46.50;;;3.00;99.90;;;;;;6212290;23;20799;-75
2022/12/19 08:45:51;;;;;;;46.80;41.27;;;3.10;99.90;;;;;;6212412;23;20456;-74
2022/12/19 08:48:19;;;;;;;49.67;43.37;;;3.20;99.90;;;;;;6212351;23;20405;-74
2022/12/19 08:50:50;;;;;;;44.73;40.00;;;3.30;99.90;;;;;;6210050;23;20412;-75
2022/12/19 08:53:17;;;;;;;51.67;44.07;;;3.30;99.90;;;;;;6212215;23;20436;-75
2022/12/19 08:55:44;;;;;;;44.57;40.10;;;3.30;99.90;;;;;;6210573;23;20431;-75
2022/12/19 08:58:10;;;;;;;44.30;36.40;;;3.40;99.90;;;;;;6208316;23;20415;-76
2022/12/19 09:00:39;;;;;;;36.50;31.20;;;3.50;99.90;;;;;;6209462;23;20418;-76
2022/12/19 09:03:05;;;;;;;43.23;31.43;;;3.50;99.90;;;;;;6209582;23;20871;-76
2022/12/19 09:05:33;;;;;;;36.67;30.27;;;3.50;99.90;;;;;;6210475;23;20447;-76
2022/12/19 09:08:00;;;;;;;37.87;30.13;;;3.50;99.90;;;;;;6210677;23;20416;-77
2022/12/19 09:10:29;;;;;;;44.50;31.03;;;3.60;99.90;;;;;;6210361;23;20412;-77
2022/12/19 09:12:55;;;;;;;34.13;25.43;;;3.60;99.90;;;;;;6209282;23;20432;-77
2022/12/19 09:15:22;;;;;;;41.10;31.30;;;3.60;99.90;;;;;;6208219;23;20919;-77
2022/12/19 09:17:49;;;;;;;38.10;29.40;;;3.70;99.90;;;;;;6208362;23;20508;-77
2022/12/19 09:20:16;;;;;;;42.43;29.73;;;3.70;99.90;;;;;;6206597;23;20443;-78
2022/12/19 09:22:44;;;;;;;35.00;28.03;;;3.80;99.90;;;;;;6208608;23;20404;-78
2022/12/19 09:25:11;;;;;;;40.10;28.13;;;3.80;99.90;;;;;;6209244;23;20908;-78
2022/12/19 09:27:38;;;;;;;35.50;27.37;;;3.80;99.90;;;;;;6209767;23;20499;-80
2022/12/19 09:30:06;;;;;;;30.50;25.70;;;4.00;99.90;;;;;;6209735;23;20690;-79
2022/12/19 09:32:32;;;;;;;38.90;27.57;;;4.00;99.90;;;;;;6209890;23;20516;-78
2022/12/19 09:34:59;;;;;;;34.57;28.00;;;4.10;99.90;;;;;;6210599;23;20522;-80
2022/12/19 09:37:26;;;;;;;41.27;29.43;;;4.10;99.90;;;;;;6210283;23;20495;-80
2022/12/19 09:39:55;;;;;;;38.67;28.23;;;4.10;99.90;;;;;;6209901;23;20834;-79
2022/12/19 09:42:38;;;;;;;42.93;30.73;;;4.10;99.90;;;;;;6209831;23;20381;-79
2022/12/19 09:45:29;;;;;;;38.23;27.43;;;4.00;99.90;;;;;;6209751;23;20670;-78
2022/12/19 09:47:57;;;;;;;40.00;27.67;;;4.00;99.90;;;;;;6209524;23;20393;-78
2022/12/19 09:50:33;;;;;;;40.50;26.30;;;4.00;99.90;;;;;;6206241;23;20895;-78
2022/12/19 09:53:06;;;;;;;36.13;24.87;;;4.00;99.90;;;;;;6210328;23;20401;-78
2022/12/19 09:55:37;;;;;;;33.97;25.97;;;4.10;99.90;;;;;;6210139;23;20472;-79
2022/12/19 09:58:11;;;;;;;33.40;24.47;;;4.10;99.90;;;;;;6210393;23;20400;-79
2022/12/19 10:00:42;;;;;;;36.60;26.60;;;4.10;99.90;;;;;;6208073;23;20393;-79
2022/12/19 10:03:18;;;;;;;37.37;27.10;;;4.10;99.90;;;;;;6208910;23;20413;-80
2022/12/19 10:05:49;;;;;;;40.23;26.87;;;4.30;99.90;;;;;;6209898;23;20483;-82
2022/12/19 10:08:18;;;;;;;41.57;28.13;;;4.40;99.90;;;;;;6209527;23;20408;-79
2022/12/19 10:11:01;;;;;;;32.07;27.47;;;4.50;99.90;;;;;;6214221;23;20408;-78
2022/12/19 10:13:41;;;;;;;37.27;27.37;;;4.70;99.90;;;;;;6213333;23;20818;-79
2022/12/19 10:16:16;;;;;;;41.17;26.90;;;4.80;99.90;;;;;;6210934;23;20393;-78
2022/12/19 10:18:51;;;;;;;36.70;26.40;;;5.10;99.90;;;;;;6211309;23;20472;-80
2022/12/19 10:21:29;;;;;;;35.20;26.50;;;5.70;99.90;;;;;;6211028;23;20510;-79
2022/12/19 10:24:09;;;;;;;35.80;27.27;;;5.90;99.90;;;;;;6210366;23;20397;-81
2022/12/19 10:26:45;;;;;;;39.70;27.00;;;5.80;99.90;;;;;;6211591;23;20932;-83
2022/12/19 10:29:37;;;;;;;34.30;27.40;;;5.80;99.90;;;;;;6213347;23;20475;-83
2022/12/19 10:32:14;;;;;;;34.80;25.50;;;5.90;99.90;;;;;;6209698;23;20409;-80
2022/12/19 10:34:42;;;;;;;40.57;29.43;;;5.90;99.90;;;;;;6210265;23;20496;-81
2022/12/19 10:37:20;;;;;;;42.43;28.20;;;5.80;99.90;;;;;;6209990;23;20400;-81
2022/12/19 10:39:56;;;;;;;44.10;25.60;;;5.80;99.90;;;;;;6210072;23;20893;-82
2022/12/19 10:42:33;;;;;;;30.97;27.40;;;5.80;99.90;;;;;;6209882;23;20883;-80
2022/12/19 10:45:03;;;;;;;31.90;24.70;;;6.00;99.90;;;;;;6210019;23;20926;-81
2022/12/19 10:47:30;;;;;;;30.50;24.27;;;6.10;99.90;;;;;;6210414;23;20432;-82
2022/12/19 10:49:58;;;;;;;28.30;22.70;;;6.20;99.90;;;;;;6210758;23;20408;-81
2022/12/19 10:52:47;;;;;;;30.37;24.63;;;6.30;99.90;;;;;;6209314;23;20413;-79
2022/12/19 10:55:41;;;;;;;28.90;25.13;;;6.20;99.90;;;;;;6205630;23;20481;-78
2022/12/19 10:58:19;;;;;;;32.80;26.70;;;6.10;99.90;;;;;;6209650;23;20393;-79
2022/12/19 11:00:57;;;;;;;33.60;27.47;;;6.10;99.90;;;;;;6210114;23;20407;-80
2022/12/19 11:03:24;;;;;;;32.67;26.83;;;6.00;99.90;;;;;;6209928;23;20381;-80
2022/12/19 11:05:52;;;;;;;35.97;24.37;;;5.80;99.90;;;;;;6209473;23;20451;-81
2022/12/19 11:08:21;;;;;;;40.13;27.70;;;5.70;99.90;;;;;;6210303;23;20408;-81
2022/12/19 11:10:49;;;;;;;31.33;25.23;;;5.60;99.90;;;;;;6209707;23;20486;-78
2022/12/19 11:13:24;;;;;;;32.23;24.53;;;5.60;99.90;;;;;;6211737;23;20409;-84
2022/12/19 11:15:52;;;;;;;30.30;24.17;;;5.70;99.90;;;;;;6210951;23;20751;-81
2022/12/19 11:18:19;;;;;;;33.63;26.20;;;5.70;99.90;;;;;;6212114;23;20413;-82
2022/12/19 11:20:55;;;;;;;32.67;24.03;;;5.70;99.90;;;;;;6213710;23;20441;-83
2022/12/19 11:23:24;;;;;;;32.00;27.47;;;5.80;99.90;;;;;;6212815;23;20420;-82
2022/12/19 11:25:57;;;;;;;30.77;26.60;;;6.00;99.90;;;;;;6212468;23;20405;-81
2022/12/19 11:28:28;;;;;;;41.23;30.50;;;6.00;99.90;;;;;;6213177;23;20416;-82
2022/12/19 11:30:58;;;;;;;37.80;30.80;;;6.20;99.90;;;;;;6212737;23;20432;-84
2022/12/19 11:33:25;;;;;;;36.90;29.00;;;6.30;99.90;;;;;;6210137;23;20793;-82
2022/12/19 11:35:54;;;;;;;32.77;26.13;;;6.40;99.90;;;;;;6210053;23;20988;-81
2022/12/19 11:38:28;;;;;;;32.60;26.27;;;6.50;99.90;;;;;;6212810;23;20409;-81
2022/12/19 11:40:57;;;;;;;34.00;27.37;;;6.40;99.90;;;;;;6213224;23;20403;-83
2022/12/19 11:43:31;;;;;;;29.27;24.63;;;6.40;99.90;;;;;;6211745;23;20439;-83
2022/12/19 11:46:05;;;;;;;27.37;24.60;;;6.40;99.90;;;;;;6212864;23;20793;-86
2022/12/19 11:48:38;;;;;;;30.70;25.20;;;6.50;99.90;;;;;;6214107;23;20426;-87
2022/12/19 11:51:14;;;;;;;36.63;29.10;;;6.40;99.90;;;;;;6213594;23;20416;-86
2022/12/19 11:53:49;;;;;;;31.53;27.90;;;6.50;99.90;;;;;;6211537;23;20396;-86
2022/12/19 11:56:20;;;;;;;36.20;27.27;;;6.40;99.90;;;;;;6214119;23;20490;-86
2022/12/19 11:58:51;;;;;;;36.37;29.47;;;6.30;99.90;;;;;;6210601;23;20419;-84
2022/12/19 12:01:34;;;;;;;38.70;29.93;;;6.40;99.90;;;;;;6212388;23;20519;-83
2022/12/19 12:04:21;;;;;;;42.23;29.73;;;6.40;99.90;;;;;;6212125;23;20967;-81
2022/12/19 12:06:52;;;;;;;36.00;27.70;;;6.30;99.90;;;;;;6211460;23;20471;-80
2022/12/19 12:09:28;;;;;;;41.33;29.80;;;6.40;99.90;;;;;;6212077;23;20389;-82
2022/12/19 12:12:10;;;;;;;34.97;27.30;;;6.40;99.90;;;;;;6211409;23;20447;-80
2022/12/19 12:14:52;;;;;;;32.80;28.27;;;6.40;99.90;;;;;;6211224;23;20688;-79
2022/12/19 12:17:31;;;;;;;38.07;29.07;;;6.30;99.90;;;;;;6211813;23;20385;-80
2022/12/19 12:20:14;;;;;;;32.60;28.47;;;6.20;99.90;;;;;;6211831;23;20439;-81
2022/12/19 12:22:56;;;;;;;37.67;28.37;;;6.40;99.90;;;;;;6211512;23;20421;-82
2022/12/19 12:25:38;;;;;;;40.97;28.43;;;6.60;99.90;;;;;;6211854;23;20413;-86
2022/12/19 12:28:23;;;;;;;41.57;30.17;;;6.60;99.90;;;;;;6212062;23;20428;-84
2022/12/19 12:31:01;;;;;;;29.53;25.43;;;6.60;99.90;;;;;;6213004;23;20389;-86
2022/12/19 12:33:35;;;;;;;28.87;25.43;;;6.50;99.90;;;;;;6215524;23;20399;-91
2022/12/19 12:36:11;;;;;;;36.27;27.90;;;6.30;99.90;;;;;;6214369;23;20389;-89
2022/12/19 12:38:50;;;;;;;29.97;26.63;;;6.30;99.90;;;;;;6214358;23;20420;-89
2022/12/19 12:42:02;;;;;;;35.57;28.80;;;6.30;99.90;;;;;;6213974;23;20393;-83
2022/12/19 12:44:14;;;;;;;31.03;27.30;;;6.30;99.90;;;;;;6211394;23;20405;-80
2022/12/19 12:46:47;;;;;;;34.37;29.10;;;6.20;99.90;;;;;;6210679;23;20443;-79
2022/12/19 12:49:28;;;;;;;42.27;28.87;;;6.00;99.90;;;;;;6212025;23;20715;-79
2022/12/19 12:51:56;;;;;;;31.20;27.87;;;5.90;99.90;;;;;;6210940;23;20393;-79
2022/12/19 12:54:28;;;;;;;31.43;28.20;;;6.00;99.90;;;;;;6210974;23;20405;-78
2022/12/19 12:56:55;;;;;;;38.73;31.90;;;6.00;99.90;;;;;;6210864;23;20399;-77